Time;durP1;ratioP1;P1;durP2;ratioP2;P2;SDS_P1;SDS_P2;PMS_P1;PMS_P2;Temp;Humidity;BMP_temperature;BMP_pressure;BME280_temperature;BME280_humidity;BME280_pressure;Samples;Min_cycle;Max_cycle;Signal;HPM_P1;HPM_P2
2022/04/25 00:00:14;;;;;;;20.30;14.03;;;;;;;12.22;62.01;99634.91;5043184;28;20218;-71
2022/04/25 00:02:42;;;;;;;19.43;14.17;;;;;;;12.19;62.30;99635.25;5039742;28;20230;-71
2022/04/25 00:05:10;;;;;;;15.23;12.80;;;;;;;12.17;61.99;99639.91;5045417;28;20218;-71
2022/04/25 00:07:39;;;;;;;17.40;13.97;;;;;;;12.13;62.17;99635.16;5045285;28;20310;-71
2022/04/25 00:10:08;;;;;;;17.07;13.03;;;;;;;12.15;61.96;99638.44;5041365;28;20575;-71
2022/04/25 00:12:36;;;;;;;15.63;12.87;;;;;;;12.15;61.84;99636.59;5044446;28;20986;-71
2022/04/25 00:15:04;;;;;;;16.53;13.30;;;;;;;12.10;61.49;99636.31;5042585;28;20222;-71
2022/04/25 00:17:32;;;;;;;16.60;13.73;;;;;;;12.01;62.06;99638.22;5045477;28;20299;-71
2022/04/25 00:20:00;;;;;;;16.73;13.33;;;;;;;11.99;62.38;99644.69;5041922;28;20263;-71
2022/04/25 00:22:28;;;;;;;18.40;13.70;;;;;;;11.98;62.42;99643.88;5048932;28;20296;-71
2022/04/25 00:24:58;;;;;;;18.67;14.70;;;;;;;11.95;62.45;99652.22;5044785;28;20207;-70
2022/04/25 00:27:28;;;;;;;17.40;14.37;;;;;;;11.92;62.42;99649.06;5042207;28;20200;-70
2022/04/25 00:29:56;;;;;;;21.10;16.57;;;;;;;11.88;62.54;99655.72;5044915;28;20248;-70
2022/04/25 00:32:24;;;;;;;20.37;15.00;;;;;;;11.87;62.43;99654.09;5045578;28;20218;-70
2022/04/25 00:34:51;;;;;;;18.07;13.70;;;;;;;11.86;62.49;99655.09;5040804;28;20219;-70
2022/04/25 00:37:19;;;;;;;20.00;15.33;;;;;;;11.83;62.68;99658.09;5040429;28;20242;-70
2022/04/25 00:39:47;;;;;;;17.77;13.93;;;;;;;11.85;62.52;99658.75;5046598;28;20202;-70
2022/04/25 00:42:16;;;;;;;20.30;15.30;;;;;;;11.81;62.46;99658.25;5040903;28;20208;-71
2022/04/25 00:44:44;;;;;;;19.10;14.37;;;;;;;11.78;62.39;99657.81;5042500;28;20674;-71
2022/04/25 00:47:11;;;;;;;20.43;14.77;;;;;;;11.78;62.31;99660.47;5040994;28;20223;-71
2022/04/25 00:49:39;;;;;;;18.93;15.23;;;;;;;11.75;62.56;99658.16;5041518;28;20216;-70
2022/04/25 00:52:07;;;;;;;19.40;14.37;;;;;;;11.76;62.36;99655.31;5045096;28;20242;-71
2022/04/25 00:54:35;;;;;;;20.00;15.07;;;;;;;11.72;62.63;99658.44;5040602;28;20222;-70
2022/04/25 00:57:04;;;;;;;19.37;14.87;;;;;;;11.69;62.49;99655.16;5080160;28;20673;-71
2022/04/25 00:59:41;;;;;;;18.33;14.07;;;;;;;11.67;62.45;99656.34;5079667;28;20705;-71
2022/04/25 01:02:09;;;;;;;19.50;14.80;;;;;;;11.64;62.50;99652.19;5079953;28;20215;-70
2022/04/25 01:04:37;;;;;;;19.00;14.60;;;;;;;11.60;62.63;99650.91;5080620;28;20600;-70
2022/04/25 01:07:05;;;;;;;20.53;15.43;;;;;;;11.59;62.61;99657.22;5081047;28;20208;-71
2022/04/25 01:09:34;;;;;;;19.03;14.20;;;;;;;11.55;63.00;99647.94;5079652;28;20686;-71
2022/04/25 01:12:02;;;;;;;19.60;14.80;;;;;;;11.51;63.02;99649.28;5082095;28;20316;-70
2022/04/25 01:14:33;;;;;;;20.17;15.23;;;;;;;11.48;63.10;99646.97;5086545;28;20209;-71
2022/04/25 01:17:02;;;;;;;19.53;14.30;;;;;;;11.49;62.96;99650.47;5080559;28;20214;-71
2022/04/25 01:19:30;;;;;;;20.10;15.30;;;;;;;11.40;63.48;99649.66;5082434;28;20653;-70
2022/04/25 01:22:00;;;;;;;21.73;14.80;;;;;;;11.38;63.36;99646.34;5080500;28;20208;-72
2022/04/25 01:27:18;;;;;;;18.20;15.00;;;;;;;10.70;65.96;99641.63;5043163;28;20212;-71
2022/04/25 01:29:53;;;;;;;19.07;14.43;;;;;;;10.62;66.13;99636.34;5081311;28;20752;-70
2022/04/25 01:32:23;;;;;;;20.33;14.47;;;;;;;10.64;66.04;99631.69;5080399;28;20296;-70
2022/04/25 01:34:52;;;;;;;21.17;15.73;;;;;;;10.80;65.75;99633.47;5077780;28;20215;-71
2022/04/25 01:37:21;;;;;;;20.93;15.60;;;;;;;10.98;65.30;99635.91;5081261;28;20219;-70
2022/04/25 01:39:51;;;;;;;19.23;15.43;;;;;;;10.93;65.06;99636.41;5080435;28;20207;-70
2022/04/25 01:42:20;;;;;;;21.00;15.43;;;;;;;10.76;65.71;99640.94;5081290;28;20211;-71
2022/04/25 01:44:48;;;;;;;19.93;15.47;;;;;;;10.51;66.38;99645.44;5084938;28;20299;-71
2022/04/25 01:47:16;;;;;;;21.13;16.00;;;;;;;10.60;66.31;99651.56;5081509;28;20360;-71
2022/04/25 01:49:45;;;;;;;20.83;15.93;;;;;;;10.69;66.34;99652.38;5083926;28;20482;-71
2022/04/25 01:52:19;;;;;;;22.23;15.33;;;;;;;10.77;65.50;99662.97;5083913;28;20538;-71
2022/04/25 01:54:48;;;;;;;25.10;15.80;;;;;;;10.85;65.11;99669.09;5082077;28;20300;-70
2022/04/25 01:57:17;;;;;;;20.33;16.47;;;;;;;10.93;64.31;99658.47;5083791;28;20361;-70
2022/04/25 01:59:45;;;;;;;21.57;15.87;;;;;;;10.79;64.24;99658.34;5083922;28;20249;-71
2022/04/25 02:02:13;;;;;;;25.13;16.07;;;;;;;10.70;64.78;99662.81;5085498;28;20257;-71
2022/04/25 02:04:41;;;;;;;20.90;16.07;;;;;;;10.75;64.97;99670.25;5086240;28;20202;-71
2022/04/25 02:07:10;;;;;;;23.30;16.63;;;;;;;10.81;64.64;99664.31;5084664;28;20648;-70
2022/04/25 02:09:39;;;;;;;20.27;16.13;;;;;;;10.82;64.55;99657.97;5088570;28;20210;-70
2022/04/25 02:12:08;;;;;;;20.13;15.83;;;;;;;10.80;64.81;99665.28;5084706;28;20277;-70
2022/04/25 02:14:38;;;;;;;20.87;15.30;;;;;;;10.80;64.75;99658.16;5087358;28;20683;-71
2022/04/25 02:17:05;;;;;;;19.60;15.10;;;;;;;10.78;65.04;99654.84;5084827;28;20294;-71
2022/04/25 02:19:35;;;;;;;20.03;15.80;;;;;;;10.81;64.72;99651.88;5084513;28;20563;-71
2022/04/25 02:22:03;;;;;;;18.87;14.77;;;;;;;10.83;64.79;99649.84;5084242;28;20205;-70
2022/04/25 02:24:31;;;;;;;19.27;15.10;;;;;;;10.85;64.80;99653.19;5084282;28;20215;-70
2022/04/25 02:27:02;;;;;;;20.20;15.10;;;;;;;10.76;64.95;99651.53;5084555;28;20205;-71
2022/04/25 02:29:30;;;;;;;21.83;16.30;;;;;;;10.75;65.05;99657.84;5085812;28;20272;-71
2022/04/25 02:32:01;;;;;;;21.57;15.53;;;;;;;10.78;65.03;99654.03;5083642;28;20771;-70
2022/04/25 02:34:31;;;;;;;20.07;15.63;;;;;;;10.79;65.24;99667.13;5087789;28;20199;-70
2022/04/25 02:37:00;;;;;;;22.57;16.30;;;;;;;10.79;65.24;99659.16;5083620;28;20211;-70
2022/04/25 02:39:28;;;;;;;20.27;16.30;;;;;;;10.78;65.19;99662.81;5085120;28;20235;-70
2022/04/25 02:41:55;;;;;;;22.77;16.53;;;;;;;10.77;65.27;99669.09;5083708;28;20195;-71
2022/04/25 02:44:23;;;;;;;19.80;14.83;;;;;;;10.75;65.08;99665.78;5088733;28;20229;-71
2022/04/25 02:46:51;;;;;;;21.00;15.33;;;;;;;10.77;64.80;99661.16;5087893;28;20234;-71
2022/04/25 02:49:20;;;;;;;20.93;15.67;;;;;;;10.80;65.00;99663.47;5085425;28;20329;-69
2022/04/25 02:51:48;;;;;;;22.00;16.93;;;;;;;10.78;64.87;99670.75;5083876;28;20268;-69
2022/04/25 02:54:15;;;;;;;21.33;16.20;;;;;;;10.77;64.96;99677.06;5084548;28;20231;-70
2022/04/25 02:56:43;;;;;;;20.63;15.27;;;;;;;10.78;64.78;99676.06;5086518;28;20598;-71
2022/04/25 02:59:11;;;;;;;20.53;15.67;;;;;;;10.80;64.70;99683.88;5084506;28;20555;-71
2022/04/25 03:01:39;;;;;;;21.30;15.90;;;;;;;10.79;64.51;99682.19;5084618;28;20694;-70
2022/04/25 03:04:07;;;;;;;21.70;15.67;;;;;;;10.81;64.16;99682.88;5085132;28;20210;-70
2022/04/25 03:06:36;;;;;;;22.50;16.03;;;;;;;10.77;64.38;99685.00;5084646;28;20340;-71
2022/04/25 03:09:05;;;;;;;21.67;16.43;;;;;;;10.73;64.87;99680.22;5082146;28;20203;-71
2022/04/25 03:11:34;;;;;;;21.83;16.83;;;;;;;10.66;64.81;99682.72;5085440;28;20227;-71
2022/04/25 03:14:03;;;;;;;19.17;15.40;;;;;;;10.67;64.85;99684.38;5084249;28;20212;-70
2022/04/25 03:16:31;;;;;;;21.70;16.53;;;;;;;10.63;64.63;99683.06;5083042;28;20653;-70
2022/04/25 03:18:59;;;;;;;23.47;16.40;;;;;;;10.54;64.92;99684.06;5082466;28;20257;-71
2022/04/25 03:21:27;;;;;;;20.60;15.87;;;;;;;10.54;65.01;99686.72;5086174;28;20299;-71
2022/04/25 03:23:56;;;;;;;22.27;15.97;;;;;;;10.54;64.71;99690.19;5086285;28;20205;-70
2022/04/25 03:26:24;;;;;;;21.13;16.40;;;;;;;10.39;65.08;99688.34;5082371;28;20204;-71
2022/04/25 03:28:52;;;;;;;21.30;16.40;;;;;;;10.24;65.94;99690.84;5085493;28;20206;-71
2022/04/25 03:31:19;;;;;;;20.80;16.30;;;;;;;10.26;66.08;99699.47;5084901;28;20316;-71
2022/04/25 03:33:47;;;;;;;23.77;16.73;;;;;;;10.28;66.15;99704.59;5087394;28;20301;-69
2022/04/25 03:36:15;;;;;;;19.83;15.20;;;;;;;10.31;65.90;99701.59;5083569;28;20211;-70
2022/04/25 03:38:43;;;;;;;22.57;17.27;;;;;;;10.34;65.63;99703.94;5085412;28;20234;-70
2022/04/25 03:41:12;;;;;;;23.87;16.80;;;;;;;10.41;65.46;99712.88;5083260;28;20207;-70
2022/04/25 03:43:40;;;;;;;23.10;15.83;;;;;;;10.39;65.38;99712.19;5080207;28;20332;-70
2022/04/25 03:46:08;;;;;;;22.43;15.43;;;;;;;10.35;65.30;99710.88;5080486;28;20203;-71
2022/04/25 03:48:36;;;;;;;22.40;15.40;;;;;;;10.33;65.20;99715.53;5083732;28;20237;-71
2022/04/25 03:51:03;;;;;;;21.00;15.83;;;;;;;10.34;65.33;99720.66;5082032;28;20203;-70
2022/04/25 03:53:31;;;;;;;20.93;15.87;;;;;;;10.34;65.20;99717.19;5083653;28;20233;-70
2022/04/25 03:58:48;;;;;;;20.17;15.10;;;;;;;10.34;65.22;99714.53;5081272;28;20666;-71
2022/04/25 04:01:16;;;;;;;22.13;16.77;;;;;;;10.36;65.13;99717.84;5079889;28;20306;-70
2022/04/25 04:03:45;;;;;;;21.33;16.57;;;;;;;10.31;65.08;99720.16;5082393;28;20248;-71
2022/04/25 04:06:13;;;;;;;21.27;16.03;;;;;;;10.28;65.00;99723.97;5079171;28;20262;-70
2022/04/25 04:08:41;;;;;;;21.40;16.93;;;;;;;10.14;65.83;99725.41;5083832;28;20203;-70
2022/04/25 04:11:09;;;;;;;21.43;16.80;;;;;;;9.92;66.65;99726.03;5078487;28;20216;-70
2022/04/25 04:13:36;;;;;;;22.23;16.73;;;;;;;9.79;67.19;99726.47;5080998;28;20348;-70
2022/04/25 04:16:06;;;;;;;22.60;17.23;;;;;;;9.74;67.27;99733.25;5078649;28;20220;-70
2022/04/25 04:18:33;;;;;;;23.77;17.30;;;;;;;9.67;67.87;99726.97;5084092;28;20297;-70
2022/04/25 04:21:01;;;;;;;21.40;16.13;;;;;;;9.47;67.48;99733.47;5080508;28;20207;-70
2022/04/25 04:23:33;;;;;;;27.33;16.73;;;;;;;9.34;67.67;99737.38;5078436;28;20199;-70
2022/04/25 04:26:01;;;;;;;21.30;16.57;;;;;;;9.30;67.61;99741.34;5082499;28;20222;-71
2022/04/25 04:28:29;;;;;;;21.00;16.27;;;;;;;9.25;67.86;99748.91;5081236;28;20210;-71
2022/04/25 04:30:57;;;;;;;24.63;17.53;;;;;;;9.20;68.01;99751.19;5079509;28;20263;-73
2022/04/25 04:33:26;;;;;;;25.67;16.27;;;;;;;9.18;68.03;99747.88;5082181;28;20322;-73
2022/04/25 04:38:43;;;;;;;29.30;16.33;;;;;;;9.22;68.36;99749.25;5086409;28;20206;-73
2022/04/25 04:41:10;;;;;;;26.40;17.10;;;;;;;9.17;68.80;99748.88;5085429;28;20216;-73
2022/04/25 04:43:38;;;;;;;22.00;16.80;;;;;;;9.20;68.61;99745.91;5084493;28;20206;-73
2022/04/25 04:46:06;;;;;;;23.90;16.37;;;;;;;9.31;68.57;99752.75;5086476;28;20246;-73
2022/04/25 04:48:35;;;;;;;22.57;16.40;;;;;;;9.41;68.26;99754.28;5085962;28;20221;-73
2022/04/25 04:51:03;;;;;;;21.97;17.17;;;;;;;9.54;67.71;99761.78;5088657;28;20209;-72
2022/04/25 04:53:31;;;;;;;21.87;15.93;;;;;;;9.65;67.41;99765.97;5090073;28;20241;-73
2022/04/25 04:56:03;;;;;;;23.07;17.30;;;;;;;9.78;66.77;99763.69;5086430;28;20238;-73
2022/04/25 04:58:30;;;;;;;20.70;16.90;;;;;;;9.85;66.49;99767.38;5086813;28;20603;-72
2022/04/25 05:00:59;;;;;;;21.90;15.70;;;;;;;9.91;66.38;99761.44;5085496;28;20640;-72
2022/04/25 05:03:27;;;;;;;21.33;15.77;;;;;;;10.03;65.97;99754.00;5086823;28;20229;-72
2022/04/25 05:05:56;;;;;;;23.03;16.00;;;;;;;9.96;66.72;99755.66;5078114;28;20301;-73
2022/04/25 05:08:24;;;;;;;24.27;16.97;;;;;;;9.96;67.08;99743.25;5089121;28;20211;-73
2022/04/25 05:10:54;;;;;;;26.53;17.53;;;;;;;10.03;67.47;99754.84;5087778;28;20207;-72
2022/04/25 05:13:22;;;;;;;24.10;16.93;;;;;;;10.11;67.53;99757.50;5087879;28;20253;-72
2022/04/25 05:15:50;;;;;;;25.70;17.90;;;;;;;10.18;67.26;99763.88;5084047;28;20660;-73
2022/04/25 05:18:19;;;;;;;29.07;19.20;;;;;;;10.27;67.43;99771.84;5090093;28;20233;-73
2022/04/25 05:20:47;;;;;;;24.37;19.20;;;;;;;10.34;67.42;99767.53;5088651;28;20282;-72
2022/04/25 05:23:19;;;;;;;25.50;18.43;;;;;;;10.41;67.51;99773.81;5092741;28;20573;-72
2022/04/25 05:25:47;;;;;;;27.30;18.87;;;;;;;10.42;67.69;99783.44;5093358;28;20205;-72
2022/04/25 05:28:15;;;;;;;26.80;18.27;;;;;;;10.44;67.46;99789.41;5093199;28;20221;-72
2022/04/25 05:30:44;;;;;;;27.93;19.50;;;;;;;10.48;67.96;99788.06;5092705;28;20217;-73
2022/04/25 05:33:12;;;;;;;27.33;20.13;;;;;;;10.54;67.61;99800.69;5092673;28;20224;-74
2022/04/25 05:35:41;;;;;;;26.63;19.97;;;;;;;10.60;67.21;99809.81;5091796;28;20227;-73
2022/04/25 05:38:10;;;;;;;26.87;18.50;;;;;;;10.65;67.22;99815.44;5091048;28;20219;-73
2022/04/25 05:40:40;;;;;;;25.37;18.47;;;;;;;10.68;66.79;99823.06;5091519;28;20234;-73
2022/04/25 05:43:09;;;;;;;23.27;17.27;;;;;;;10.70;66.73;99821.91;5094071;28;20198;-72
2022/04/25 05:45:37;;;;;;;22.63;17.77;;;;;;;10.76;66.21;99831.84;5091642;28;20226;-72
2022/04/25 05:51:58;;;;;;;25.00;19.30;;;;;;;10.80;65.76;99830.56;5093772;28;20203;-72
2022/04/25 05:53:41;;;;;;;24.57;18.47;;;;;;;10.75;66.21;99824.88;5091758;28;20357;-73
2022/04/25 05:56:10;;;;;;;25.00;18.60;;;;;;;10.77;66.23;99835.34;5088996;28;20766;-72
2022/04/25 05:58:38;;;;;;;24.67;18.07;;;;;;;10.60;66.61;99837.16;5086200;28;20206;-72
2022/04/25 06:01:06;;;;;;;24.73;18.40;;;;;;;10.47;67.37;99837.59;5083785;28;20683;-73
2022/04/25 06:03:33;;;;;;;26.90;18.93;;;;;;;10.59;67.25;99835.47;5087068;28;20247;-73
2022/04/25 06:06:01;;;;;;;32.20;20.40;;;;;;;10.73;66.97;99837.47;5085008;28;20564;-72
2022/04/25 06:08:29;;;;;;;27.30;19.50;;;;;;;10.73;67.39;99832.19;5084329;28;20580;-72
2022/04/25 06:10:57;;;;;;;24.83;19.13;;;;;;;10.68;67.67;99841.63;5085214;28;20195;-72
2022/04/25 06:13:26;;;;;;;28.03;19.60;;;;;;;10.74;67.74;99846.25;5086958;28;20233;-72
2022/04/25 06:15:54;;;;;;;32.73;22.67;;;;;;;10.66;67.88;99847.09;5084774;28;20209;-72
2022/04/25 06:18:22;;;;;;;33.07;23.13;;;;;;;10.65;68.21;99842.78;5086100;28;20254;-73
2022/04/25 06:20:50;;;;;;;33.27;23.57;;;;;;;10.66;68.11;99841.78;5086610;28;20207;-74
2022/04/25 06:23:19;;;;;;;31.03;23.17;;;;;;;10.67;68.47;99838.16;5081108;28;21810;-73
2022/04/25 06:25:46;;;;;;;30.57;22.70;;;;;;;10.69;68.89;99838.81;5085697;28;20199;-73
2022/04/25 06:28:14;;;;;;;32.00;23.33;;;;;;;10.76;68.58;99831.84;5086515;28;20326;-71
2022/04/25 06:30:43;;;;;;;35.60;24.20;;;;;;;10.89;68.20;99842.81;5081594;28;20217;-74
2022/04/25 06:33:14;;;;;;;35.27;24.60;;;;;;;10.96;68.63;99839.50;5079998;28;20235;-74
2022/04/25 06:35:43;;;;;;;31.63;23.47;;;;;;;11.07;68.58;99839.19;5084156;28;20544;-72
2022/04/25 06:38:11;;;;;;;35.33;25.80;;;;;;;11.17;68.31;99843.28;5083933;28;20260;-72
2022/04/25 06:40:39;;;;;;;37.57;25.00;;;;;;;11.24;68.05;99851.44;5090018;28;20216;-71
2022/04/25 06:43:08;;;;;;;36.27;24.27;;;;;;;11.24;68.62;99846.97;5081162;28;20256;-66
2022/04/25 06:45:35;;;;;;;34.80;24.60;;;;;;;11.28;68.48;99845.59;5086848;28;20207;-71
2022/04/25 06:48:05;;;;;;;30.30;23.90;;;;;;;11.38;68.10;99845.44;5080744;28;20710;-74
2022/04/25 06:50:33;;;;;;;32.87;25.13;;;;;;;11.44;67.64;99857.19;5086086;28;20232;-73
2022/04/25 06:53:00;;;;;;;35.73;25.93;;;;;;;11.53;67.50;99851.69;5083935;28;20213;-72
2022/04/25 06:55:29;;;;;;;33.87;24.70;;;;;;;11.57;67.66;99855.69;5081974;28;20750;-70
2022/04/25 06:58:00;;;;;;;34.03;24.90;;;;;;;11.66;67.60;99861.81;5091103;28;20325;-72
2022/04/25 07:00:27;;;;;;;31.57;24.00;;;;;;;11.68;67.35;99865.97;5087329;28;20215;-68
2022/04/25 07:03:05;;;;;;;33.63;25.13;;;;;;;11.78;66.98;99857.84;5085600;28;20456;-71
2022/04/25 07:05:33;;;;;;;33.43;25.80;;;;;;;11.82;67.39;99850.34;5086837;28;20307;-71
2022/04/25 07:08:01;;;;;;;33.83;25.17;;;;;;;11.94;66.95;99862.25;5089646;28;20223;-71
2022/04/25 07:10:31;;;;;;;35.70;25.20;;;;;;;12.07;66.36;99862.53;5088292;28;20679;-72
2022/04/25 07:13:00;;;;;;;33.23;25.17;;;;;;;12.21;65.66;99863.66;5089725;28;20340;-71
2022/04/25 07:15:27;;;;;;;35.40;25.77;;;;;;;12.27;65.83;99868.28;5090243;28;20207;-70
2022/04/25 07:17:56;;;;;;;33.17;25.00;;;;;;;12.37;64.87;99872.38;5089878;28;20212;-69
2022/04/25 07:20:28;;;;;;;30.50;23.70;;;;;;;12.50;64.75;99881.59;5086672;28;20304;-71
2022/04/25 07:31:17;;;;;;;30.47;23.97;;;;;;;12.68;64.47;99876.84;5088711;28;20214;-72
2022/04/25 07:33:45;;;;;;;31.23;24.57;;;;;;;12.76;64.34;99871.47;5088493;28;20709;-71
2022/04/25 07:36:15;;;;;;;30.57;22.70;;;;;;;12.87;63.96;99872.91;5088347;28;20309;-70
2022/04/25 07:38:47;;;;;;;34.77;25.47;;;;;;;13.00;63.22;99868.66;5087574;28;20221;-73
2022/04/25 07:41:17;;;;;;;31.37;23.30;;;;;;;13.13;62.51;99863.56;5087425;28;20230;-71
2022/04/25 07:43:45;;;;;;;27.70;21.10;;;;;;;13.17;63.56;99859.56;5089134;28;20290;-71
2022/04/25 07:46:17;;;;;;;26.73;20.67;;;;;;;13.28;63.15;99865.47;5087560;28;20294;-72
2022/04/25 07:48:45;;;;;;;25.97;19.03;;;;;;;13.40;62.06;99866.66;5088663;28;20272;-71
2022/04/25 07:51:13;;;;;;;27.53;20.43;;;;;;;13.50;61.01;99872.56;5084384;28;20322;-73
2022/04/25 07:53:46;;;;;;;25.17;19.27;;;;;;;13.53;62.29;99872.22;5083911;28;20552;-73
2022/04/25 07:56:17;;;;;;;24.97;18.63;;;;;;;13.55;60.14;99875.50;5087331;28;20736;-72
2022/04/25 07:58:45;;;;;;;24.40;19.07;;;;;;;13.56;60.53;99870.00;5089139;28;20209;-72
2022/04/25 08:01:14;;;;;;;26.53;19.33;;;;;;;13.49;60.06;99873.56;5086827;28;20663;-72
2022/04/25 08:03:42;;;;;;;22.93;17.63;;;;;;;13.61;60.97;99874.78;5088028;28;20576;-73
2022/04/25 08:06:11;;;;;;;25.40;19.73;;;;;;;13.77;60.75;99882.63;5089294;28;20592;-72
2022/04/25 08:08:39;;;;;;;28.10;20.67;;;;;;;13.90;60.07;99880.13;5090134;28;20207;-73
2022/04/25 08:11:11;;;;;;;23.60;18.13;;;;;;;13.99;59.26;99880.03;5089515;28;20204;-73
2022/04/25 08:19:14;;;;;;;21.97;17.87;;;;;;;14.45;58.65;99889.50;5081895;28;20681;-72
2022/04/25 08:21:42;;;;;;;21.23;17.23;;;;;;;14.49;57.94;99892.63;5084155;28;20297;-71
2022/04/25 08:24:13;;;;;;;23.73;17.10;;;;;;;14.59;57.46;99894.00;5089147;28;20234;-70
2022/04/25 08:26:42;;;;;;;21.07;16.47;;;;;;;14.66;57.57;99894.88;5088746;28;20813;-71
2022/04/25 08:29:10;;;;;;;21.03;16.43;;;;;;;14.75;56.88;99894.75;5082115;28;20213;-71
2022/04/25 08:31:38;;;;;;;21.27;16.33;;;;;;;14.91;55.24;99886.50;5089840;28;20195;-70
2022/04/25 08:34:08;;;;;;;23.30;16.83;;;;;;;14.98;55.83;99890.06;5087181;28;20231;-71
2022/04/25 08:36:37;;;;;;;22.87;17.03;;;;;;;15.10;56.57;99890.41;5086907;28;20227;-70
2022/04/25 08:39:05;;;;;;;20.73;16.43;;;;;;;15.18;56.00;99891.09;5086274;28;20199;-70
2022/04/25 08:41:41;;;;;;;25.97;18.80;;;;;;;15.33;55.13;99883.81;5080600;28;20226;-71
2022/04/25 08:44:11;;;;;;;22.83;16.53;;;;;;;15.38;55.70;99888.59;5083239;28;20195;-69
2022/04/25 08:46:41;;;;;;;21.80;16.80;;;;;;;15.35;55.13;99895.16;5083559;28;20203;-69
2022/04/25 08:49:11;;;;;;;22.23;16.87;;;;;;;15.23;55.01;99895.84;5082225;28;20225;-70
2022/04/25 08:51:42;;;;;;;19.83;16.50;;;;;;;15.25;55.19;99899.16;5083686;28;20207;-71
2022/04/25 08:54:10;;;;;;;25.07;16.90;;;;;;;15.39;54.67;99891.06;5083098;28;20266;-71
2022/04/25 08:56:41;;;;;;;20.00;15.77;;;;;;;15.62;53.65;99890.03;5086311;28;20293;-70
2022/04/25 08:59:11;;;;;;;20.53;15.40;;;;;;;15.87;54.08;99890.41;5082480;28;20291;-71
2022/04/25 09:01:40;;;;;;;18.70;14.60;;;;;;;15.88;53.11;99895.56;5083688;28;20247;-70
2022/04/25 09:04:09;;;;;;;19.47;15.30;;;;;;;16.06;52.17;99903.91;5083575;28;20491;-70
2022/04/25 09:06:37;;;;;;;21.30;16.20;;;;;;;16.19;52.14;99893.25;5083265;28;20556;-71
2022/04/25 09:09:04;;;;;;;26.67;16.43;;;;;;;16.32;51.49;99899.72;5085689;28;20214;-71
2022/04/25 09:14:25;;;;;;;18.27;15.87;;;;;;;16.37;51.32;99905.28;5066692;28;20224;-71
2022/04/25 09:16:52;;;;;;;15.83;13.57;;;;;;;16.05;51.29;99902.25;5083934;28;20318;-69
2022/04/25 09:19:20;;;;;;;15.87;12.67;;;;;;;16.13;51.60;99906.59;5083127;28;20312;-69
2022/04/25 09:21:48;;;;;;;15.67;13.23;;;;;;;16.11;51.24;99909.47;5084233;28;20222;-68
2022/04/25 09:24:23;;;;;;;17.37;13.90;;;;;;;16.04;52.03;99910.47;5084020;28;20642;-69
2022/04/25 09:26:53;;;;;;;16.37;13.57;;;;;;;15.95;52.66;99917.81;5083924;28;20206;-69
2022/04/25 09:29:28;;;;;;;17.03;13.07;;;;;;;15.89;52.27;99923.13;5084080;28;20211;-70
2022/04/25 09:31:57;;;;;;;16.47;13.23;;;;;;;15.98;51.82;99920.09;5081264;28;20933;-70
2022/04/25 09:37:10;;;;;;;18.37;14.97;;;;;;;16.32;52.36;99918.44;5083647;28;20203;-69
2022/04/25 09:39:38;;;;;;;19.27;16.17;;;;;;;16.52;52.08;99927.38;5088129;28;20206;-74
2022/04/25 09:42:06;;;;;;;20.50;15.20;;;;;;;16.59;52.18;99916.69;5088202;28;20206;-74
2022/04/25 09:44:57;;;;;;;17.37;14.40;;;;;;;16.58;51.24;99923.06;5086753;28;20227;-72
2022/04/25 09:47:29;;;;;;;20.00;15.03;;;;;;;16.63;50.64;99916.13;5085209;28;20293;-71
2022/04/25 09:50:06;;;;;;;18.03;15.83;;;;;;;16.65;51.31;99924.78;5084168;28;20215;-72
2022/04/25 09:52:35;;;;;;;20.20;15.30;;;;;;;17.15;49.71;99922.66;5081963;28;20253;-71
2022/04/25 09:55:15;;;;;;;17.07;12.67;;;;;;;17.38;48.53;99924.94;5082823;28;20321;-74
2022/04/25 09:57:45;;;;;;;16.63;13.23;;;;;;;17.41;48.56;99928.06;5082974;28;20210;-73
2022/04/25 10:00:29;;;;;;;19.67;14.43;;;;;;;17.65;47.79;99926.63;5080675;28;20214;-72
2022/04/25 10:02:58;;;;;;;17.67;13.87;;;;;;;17.76;46.97;99934.06;5085579;28;21129;-73
2022/04/25 10:05:39;;;;;;;19.43;14.60;;;;;;;17.44;47.25;99929.47;5088943;28;20298;-73
2022/04/25 10:08:08;;;;;;;18.43;16.00;;;;;;;17.42;47.47;99918.94;5084155;28;20294;-72
2022/04/25 10:10:45;;;;;;;18.20;16.20;;;;;;;17.46;47.53;99924.75;5087913;28;20510;-73
2022/04/25 10:13:18;;;;;;;19.43;15.90;;;;;;;17.61;48.73;99920.81;5085613;28;20222;-73
2022/04/25 10:15:55;;;;;;;21.40;15.87;;;;;;;17.81;47.24;99926.19;5088052;28;20317;-74
2022/04/25 10:18:25;;;;;;;18.93;15.43;;;;;;;17.99;46.13;99922.88;5087418;28;20234;-73
2022/04/25 10:20:53;;;;;;;20.43;16.70;;;;;;;17.92;47.29;99917.53;5086701;28;20305;-72
2022/04/25 10:23:21;;;;;;;20.40;17.40;;;;;;;18.00;47.04;99928.03;5088903;28;20218;-73
2022/04/25 10:25:51;;;;;;;20.47;16.73;;;;;;;18.16;46.73;99925.94;5086058;28;20203;-74
2022/04/25 10:28:23;;;;;;;20.83;17.40;;;;;;;18.40;45.36;99919.88;5086203;28;20210;-74
2022/04/25 10:30:52;;;;;;;19.07;16.23;;;;;;;18.63;45.00;99916.72;5087737;28;20195;-74
2022/04/25 10:33:22;;;;;;;19.30;16.73;;;;;;;18.68;45.45;99912.34;5085897;28;20268;-73
2022/04/25 10:35:52;;;;;;;22.37;19.33;;;;;;;18.58;45.10;99916.53;5086639;28;20310;-73
2022/04/25 10:38:50;;;;;;;24.73;19.80;;;;;;;18.45;45.91;99912.00;5087540;28;20213;-74
2022/04/25 10:44:44;;;;;;;25.53;20.80;;;;;;;18.61;45.21;99916.94;5087266;28;20358;-72
2022/04/25 10:47:16;;;;;;;23.67;19.57;;;;;;;18.70;45.98;99922.88;5081175;28;20264;-73
2022/04/25 10:49:46;;;;;;;24.30;18.53;;;;;;;18.87;45.23;99909.78;5085241;28;20240;-72
2022/04/25 10:52:53;;;;;;;19.83;17.80;;;;;;;19.11;45.07;99917.88;5087461;28;20290;-73
2022/04/25 10:55:33;;;;;;;22.30;16.57;;;;;;;19.28;44.30;99910.13;5085052;28;20786;-72
2022/04/25 10:58:18;;;;;;;20.10;16.97;;;;;;;19.17;43.05;99911.63;5085101;28;20233;-71
2022/04/25 11:00:51;;;;;;;18.03;15.57;;;;;;;19.10;43.38;99921.59;5086524;28;20213;-72
2022/04/25 11:03:23;;;;;;;17.90;16.10;;;;;;;18.84;43.56;99916.38;5085336;28;20203;-72
2022/04/25 11:05:52;;;;;;;17.73;15.83;;;;;;;18.56;44.70;99910.53;5087109;28;20222;-72
2022/04/25 11:08:31;;;;;;;17.57;15.43;;;;;;;18.30;45.05;99912.25;5087244;28;20246;-71
2022/04/25 11:11:08;;;;;;;18.57;15.63;;;;;;;18.09;46.06;99917.91;5084655;28;20204;-73
2022/04/25 11:14:01;;;;;;;16.13;14.43;;;;;;;18.00;45.03;99914.63;5087332;28;20211;-72
2022/04/25 11:16:29;;;;;;;17.03;15.20;;;;;;;17.67;46.41;99930.75;5090632;28;20718;-71
2022/04/25 11:19:09;;;;;;;17.53;15.43;;;;;;;17.68;47.31;99926.19;5086046;28;20207;-72
2022/04/25 11:21:46;;;;;;;21.27;16.67;;;;;;;17.94;46.61;99925.38;5089559;28;20206;-71
2022/04/25 11:24:28;;;;;;;16.37;14.67;;;;;;;18.74;45.15;99932.97;5088756;28;20206;-71
2022/04/25 11:26:58;;;;;;;16.93;13.87;;;;;;;19.25;42.53;99924.00;5086052;28;20637;-71
2022/04/25 11:29:26;;;;;;;15.90;13.30;;;;;;;19.49;42.50;99930.47;5089374;28;20225;-70
2022/04/25 11:32:26;;;;;;;14.10;11.27;;;;;;;20.01;40.95;99923.78;5090047;28;20731;-71
2022/04/25 11:34:59;;;;;;;13.87;12.07;;;;;;;20.04;40.54;99919.84;5088767;28;20302;-70
2022/04/25 11:37:30;;;;;;;16.37;12.60;;;;;;;19.62;41.83;99930.34;5086572;28;20213;-70
2022/04/25 11:40:00;;;;;;;15.17;12.43;;;;;;;19.15;42.79;99934.41;5086898;28;20495;-69
2022/04/25 11:42:30;;;;;;;19.33;14.37;;;;;;;18.65;42.65;99934.25;5087607;28;20203;-73
2022/04/25 11:45:01;;;;;;;15.17;12.43;;;;;;;18.35;42.92;99939.31;5089515;28;20340;-73
2022/04/25 11:47:31;;;;;;;17.67;12.37;;;;;;;18.09;44.19;99943.91;5085242;28;20203;-73
2022/04/25 11:50:02;;;;;;;16.40;11.93;;;;;;;17.82;45.62;99952.00;5088499;28;20211;-73
2022/04/25 11:52:30;;;;;;;14.83;11.70;;;;;;;17.83;46.01;99955.50;5084957;28;20199;-73
2022/04/25 11:54:58;;;;;;;13.17;11.77;;;;;;;17.68;46.07;99958.38;5089808;28;20230;-68
2022/04/25 11:57:27;;;;;;;13.30;11.17;;;;;;;17.60;46.14;99956.69;5087047;28;20310;-71
2022/04/25 12:00:12;;;;;;;15.87;11.57;;;;;;;17.34;47.18;99951.31;5085971;28;20229;-70
2022/04/25 12:02:41;;;;;;;19.87;10.80;;;;;;;17.34;47.46;99954.00;5079523;28;20199;-71